Time;durP1;ratioP1;P1;durP2;ratioP2;P2;SDS_P1;SDS_P2;PMS_P1;PMS_P2;Temp;Humidity;BMP_temperature;BMP_pressure;BME280_temperature;BME280_humidity;BME280_pressure;Samples;Min_cycle;Max_cycle;Signal;HPM_P1;HPM_P2
2022/03/18 00:00:54;;;;;;;38.92;24.23;;;;;;;6.91;53.63;102802.47;5073220;28;20036;-64
2022/03/18 00:03:19;;;;;;;45.22;26.70;;;;;;;6.90;53.71;102796.38;5071913;28;20039;-64
2022/03/18 00:05:45;;;;;;;42.30;25.42;;;;;;;6.87;53.68;102792.75;5072710;28;20384;-66
2022/03/18 00:08:11;;;;;;;39.28;24.75;;;;;;;6.85;53.72;102800.53;5072991;28;20048;-65
2022/03/18 00:10:36;;;;;;;43.10;25.83;;;;;;;6.82;53.75;102799.53;5088493;28;20036;-64
2022/03/18 00:13:02;;;;;;;37.70;24.35;;;;;;;6.78;53.73;102802.91;5077634;28;20036;-64
2022/03/18 00:15:28;;;;;;;43.65;26.50;;;;;;;6.77;53.88;102801.13;5077132;28;20036;-64
2022/03/18 00:17:55;;;;;;;45.17;27.17;;;;;;;6.78;53.79;102806.44;5075983;28;20032;-64
2022/03/18 00:20:21;;;;;;;56.10;31.63;;;;;;;6.77;53.92;102809.84;5075811;28;20037;-64
2022/03/18 00:22:47;;;;;;;79.03;42.63;;;;;;;6.79;53.75;102812.53;5055804;28;20044;-64
2022/03/18 00:25:14;;;;;;;70.53;37.28;;;;;;;6.74;53.79;102811.47;5055546;28;20481;-64
2022/03/18 00:27:44;;;;;;;52.22;32.25;;;;;;;6.76;53.76;102817.66;5039329;28;20037;-63
2022/03/18 00:30:12;;;;;;;47.60;30.40;;;;;;;6.74;53.72;102819.31;5039735;28;20520;-64
2022/03/18 00:32:38;;;;;;;48.45;31.75;;;;;;;6.75;53.64;102823.72;5056941;28;20055;-65
2022/03/18 00:35:05;;;;;;;42.33;26.65;;;;;;;6.70;53.73;102818.31;5055619;28;20041;-65
2022/03/18 00:37:31;;;;;;;45.83;27.65;;;;;;;6.71;53.80;102816.63;5055524;28;20039;-64
2022/03/18 00:39:56;;;;;;;42.08;26.35;;;;;;;6.69;53.83;102813.94;5065999;28;20107;-64
2022/03/18 00:42:22;;;;;;;37.40;25.50;;;;;;;6.71;53.77;102816.63;5076790;28;20032;-64
2022/03/18 00:44:48;;;;;;;39.80;24.73;;;;;;;6.66;53.63;102812.13;5075620;28;20115;-64
2022/03/18 00:52:42;;;;;;;35.78;22.95;;;;;;;6.69;53.48;102816.56;5076479;28;20047;-64
2022/03/18 00:55:08;;;;;;;33.97;21.25;;;;;;;6.66;53.43;102822.59;5075073;28;20415;-64
2022/03/18 00:57:33;;;;;;;36.20;21.13;;;;;;;6.62;53.52;102820.72;5082070;28;20056;-64
2022/03/18 00:59:58;;;;;;;35.25;23.23;;;;;;;6.61;53.46;102821.53;5055118;28;20044;-65
2022/03/18 01:02:24;;;;;;;31.13;20.40;;;;;;;6.63;53.34;102826.81;5056800;28;20044;-64
2022/03/18 01:04:50;;;;;;;29.55;19.25;;;;;;;6.59;53.38;102823.22;5055942;28;20166;-64
2022/03/18 01:07:16;;;;;;;40.08;24.95;;;;;;;6.59;53.26;102818.00;5074692;28;20162;-64
2022/03/18 01:09:42;;;;;;;29.13;19.00;;;;;;;6.57;53.23;102818.75;5074848;28;20037;-64
2022/03/18 01:12:08;;;;;;;35.17;23.38;;;;;;;6.56;53.35;102825.72;5076057;28;20082;-64
2022/03/18 01:14:33;;;;;;;31.42;20.88;;;;;;;6.53;53.33;102820.38;5076003;28;20115;-64
2022/03/18 01:16:59;;;;;;;38.80;23.67;;;;;;;6.51;53.36;102827.28;5075822;28;20119;-64
2022/03/18 01:19:24;;;;;;;32.50;20.58;;;;;;;6.51;53.20;102821.19;5075684;28;20036;-65
2022/03/18 01:21:50;;;;;;;37.67;22.48;;;;;;;6.51;53.11;102826.41;5075578;28;20491;-64
2022/03/18 01:24:15;;;;;;;32.55;20.05;;;;;;;6.50;53.04;102822.88;5075848;28;20060;-64
2022/03/18 01:26:41;;;;;;;29.00;19.60;;;;;;;6.49;53.05;102828.94;5074328;28;20078;-64
2022/03/18 01:29:06;;;;;;;34.15;21.80;;;;;;;6.48;52.95;102826.31;5075469;28;20029;-64
2022/03/18 01:31:31;;;;;;;30.92;20.83;;;;;;;6.46;52.88;102831.44;5075869;28;20035;-64
2022/03/18 01:33:57;;;;;;;32.42;21.10;;;;;;;6.40;53.09;102828.66;5074194;28;20060;-64
2022/03/18 01:36:22;;;;;;;26.15;18.40;;;;;;;6.38;53.12;102826.00;5075338;28;20047;-65
2022/03/18 01:38:48;;;;;;;36.83;23.33;;;;;;;6.38;53.12;102831.22;5074824;28;20396;-64
2022/03/18 01:41:14;;;;;;;33.67;22.73;;;;;;;6.36;53.15;102832.00;5075186;28;20029;-64
2022/03/18 01:43:47;;;;;;;31.23;20.52;;;;;;;6.35;52.95;102831.09;5075813;28;20468;-64
2022/03/18 01:46:14;;;;;;;29.58;20.42;;;;;;;6.35;52.99;102828.50;5075787;28;20056;-63
2022/03/18 01:48:41;;;;;;;39.92;23.67;;;;;;;6.37;52.99;102832.03;5073767;28;20082;-66
2022/03/18 01:51:07;;;;;;;35.47;23.20;;;;;;;6.35;52.86;102838.94;5074383;28;20487;-66
2022/03/18 01:53:37;;;;;;;50.67;29.65;;;;;;;6.33;52.72;102840.59;5073893;28;20453;-66
2022/03/18 01:56:05;;;;;;;43.03;27.30;;;;;;;6.26;53.14;102835.97;5074128;28;20036;-66
2022/03/18 01:58:31;;;;;;;41.47;28.40;;;;;;;6.20;53.26;102840.13;5056981;28;20530;-64
2022/03/18 02:00:58;;;;;;;36.60;24.75;;;;;;;6.15;53.31;102838.25;5075202;28;20056;-67
2022/03/18 02:03:23;;;;;;;35.15;22.55;;;;;;;6.13;53.29;102844.22;5075232;28;20033;-66
2022/03/18 02:05:49;;;;;;;34.50;21.08;;;;;;;6.11;53.22;102841.56;5074904;28;20037;-65
2022/03/18 02:08:16;;;;;;;31.77;19.88;;;;;;;6.13;53.13;102845.09;5075246;28;20043;-65
2022/03/18 02:10:42;;;;;;;29.15;18.23;;;;;;;6.11;53.11;102849.41;5075510;28;20033;-66
2022/03/18 02:13:08;;;;;;;33.33;20.05;;;;;;;6.07;53.04;102844.91;5074988;28;20094;-66
2022/03/18 02:15:33;;;;;;;32.42;17.85;;;;;;;6.05;53.08;102849.16;5074983;28;20042;-67
2022/03/18 02:17:59;;;;;;;24.05;16.35;;;;;;;6.05;53.03;102843.94;5075250;28;20067;-66
2022/03/18 02:20:24;;;;;;;26.48;16.38;;;;;;;6.06;52.87;102850.06;5074697;28;20055;-66
2022/03/18 02:22:50;;;;;;;30.90;18.08;;;;;;;6.02;52.79;102846.44;5074969;28;20063;-65
2022/03/18 02:25:15;;;;;;;27.40;17.17;;;;;;;6.00;52.80;102853.34;5074654;28;20377;-66
2022/03/18 02:27:54;;;;;;;31.98;19.00;;;;;;;6.00;52.06;102852.47;5074549;28;20476;-66
2022/03/18 02:30:19;;;;;;;26.05;16.50;;;;;;;5.97;52.45;102857.56;5073455;28;20021;-66
2022/03/18 02:32:46;;;;;;;27.65;17.15;;;;;;;5.99;52.47;102855.91;5074191;28;20028;-65
2022/03/18 02:35:11;;;;;;;23.05;14.82;;;;;;;5.96;52.38;102853.19;5073401;28;20040;-66
2022/03/18 02:37:37;;;;;;;24.65;15.15;;;;;;;5.96;52.21;102859.28;5074741;28;20483;-66
2022/03/18 02:40:02;;;;;;;22.70;14.43;;;;;;;5.95;52.02;102865.34;5074448;28;20086;-66
2022/03/18 02:42:28;;;;;;;26.58;14.65;;;;;;;5.93;51.93;102854.81;5074141;28;20078;-66
2022/03/18 02:44:54;;;;;;;25.15;14.50;;;;;;;5.92;51.76;102855.66;5074578;28;20063;-66
2022/03/18 02:47:20;;;;;;;26.02;14.48;;;;;;;5.95;51.58;102867.06;5074665;28;20119;-66
2022/03/18 02:49:45;;;;;;;22.92;14.88;;;;;;;5.95;51.33;102875.78;5059038;28;20028;-66
2022/03/18 02:52:11;;;;;;;23.92;14.52;;;;;;;5.95;51.17;102874.91;5074215;28;20046;-66
2022/03/18 02:54:37;;;;;;;25.58;15.15;;;;;;;5.93;51.17;102872.22;5074231;28;20094;-66
2022/03/18 02:57:02;;;;;;;21.83;14.77;;;;;;;5.95;50.99;102881.00;5074074;28;20048;-66
2022/03/18 02:59:28;;;;;;;26.65;15.05;;;;;;;5.95;51.22;102878.38;5074097;28;20042;-67
2022/03/18 03:01:53;;;;;;;28.80;17.60;;;;;;;5.93;50.96;102880.91;5074825;28;20054;-66
2022/03/18 03:04:19;;;;;;;24.50;15.07;;;;;;;5.91;50.81;102884.28;5073882;28;20095;-66
2022/03/18 03:09:29;;;;;;;31.15;17.10;;;;;;;5.87;50.99;102887.63;5073994;28;20039;-65
2022/03/18 03:11:54;;;;;;;38.60;18.33;;;;;;;5.83;50.89;102897.06;5072548;28;20024;-65
2022/03/18 03:14:20;;;;;;;23.40;14.70;;;;;;;5.81;50.92;102896.09;5073664;28;20102;-64
2022/03/18 03:16:46;;;;;;;24.95;15.40;;;;;;;5.79;50.81;102907.31;5074115;28;20461;-65
2022/03/18 03:19:13;;;;;;;26.83;15.85;;;;;;;5.78;50.83;102903.78;5073935;28;20580;-64
2022/03/18 03:21:40;;;;;;;22.58;14.98;;;;;;;5.75;50.76;102906.31;5069123;28;20127;-64
2022/03/18 03:24:05;;;;;;;20.35;13.70;;;;;;;5.72;50.94;102906.19;5054030;28;20067;-65
2022/03/18 03:26:31;;;;;;;22.10;13.82;;;;;;;5.66;50.80;102898.09;5053661;28;20467;-65
2022/03/18 03:28:56;;;;;;;24.20;14.55;;;;;;;5.65;50.71;102897.22;5069736;28;20468;-65
2022/03/18 03:31:22;;;;;;;20.63;13.07;;;;;;;5.61;50.63;102905.75;5073573;28;20051;-64
2022/03/18 03:33:47;;;;;;;18.13;11.45;;;;;;;5.59;50.60;102899.59;5073811;28;20054;-64
2022/03/18 03:36:13;;;;;;;18.70;11.60;;;;;;;5.55;50.57;102907.25;5073468;28;20058;-64
2022/03/18 03:38:38;;;;;;;20.08;11.82;;;;;;;5.52;50.54;102905.41;5073760;28;20040;-64
2022/03/18 03:41:04;;;;;;;20.48;12.65;;;;;;;5.48;50.60;102911.34;5073564;28;20028;-64
2022/03/18 03:43:30;;;;;;;19.58;12.35;;;;;;;5.45;50.34;102911.19;5072195;28;20383;-65
2022/03/18 03:45:56;;;;;;;20.88;12.45;;;;;;;5.44;50.31;102925.06;5072865;28;20032;-64
2022/03/18 03:48:21;;;;;;;23.90;13.00;;;;;;;5.42;50.30;102929.31;5073388;28;20040;-64
2022/03/18 03:50:47;;;;;;;29.73;15.55;;;;;;;5.40;50.29;102925.78;5073250;28;20104;-65
2022/03/18 03:53:12;;;;;;;24.95;13.77;;;;;;;5.38;50.21;102927.44;5073244;28;20051;-62
2022/03/18 03:55:39;;;;;;;24.73;13.77;;;;;;;5.37;50.21;102933.47;5053908;28;20135;-66
2022/03/18 03:58:06;;;;;;;36.78;17.33;;;;;;;5.33;50.34;102936.78;5069049;28;20383;-64
2022/03/18 04:00:32;;;;;;;39.40;18.70;;;;;;;5.30;50.33;102934.06;5035767;28;20041;-64
2022/03/18 04:02:57;;;;;;;23.48;14.00;;;;;;;5.28;50.15;102938.34;5053506;28;20040;-64
2022/03/18 04:05:23;;;;;;;19.95;12.75;;;;;;;5.25;50.31;102946.03;5064570;28;20028;-64
2022/03/18 04:07:48;;;;;;;21.33;13.63;;;;;;;5.19;50.42;102942.34;5073627;28;20028;-64
2022/03/18 04:10:14;;;;;;;22.20;13.90;;;;;;;5.17;50.39;102940.50;5073242;28;20119;-65
2022/03/18 04:12:40;;;;;;;23.20;14.73;;;;;;;5.12;50.21;102945.50;5072097;28;20041;-64
2022/03/18 04:15:09;;;;;;;24.25;15.48;;;;;;;5.13;50.34;102952.50;5072068;28;20384;-64
2022/03/18 04:17:45;;;;;;;20.20;13.40;;;;;;;5.08;50.38;102963.56;5068330;28;20033;-64
2022/03/18 04:20:13;;;;;;;19.98;13.15;;;;;;;5.06;50.48;102966.09;5052041;28;20045;-64
2022/03/18 04:22:39;;;;;;;20.30;12.80;;;;;;;5.04;50.37;102966.88;5056591;28;20028;-64
2022/03/18 04:25:05;;;;;;;26.98;15.25;;;;;;;5.03;50.46;102970.31;5072067;28;20041;-64
2022/03/18 04:27:32;;;;;;;22.50;13.43;;;;;;;5.03;50.35;102973.81;5071977;28;20472;-64
2022/03/18 04:29:57;;;;;;;20.00;12.52;;;;;;;4.97;50.49;102963.09;5071390;28;20029;-64
2022/03/18 04:32:23;;;;;;;26.50;15.15;;;;;;;5.02;50.33;102974.59;5073296;28;20509;-64
2022/03/18 04:34:48;;;;;;;23.35;14.40;;;;;;;5.03;50.24;102972.91;5073098;28;20043;-64
2022/03/18 04:37:13;;;;;;;31.05;17.08;;;;;;;5.04;50.25;102986.00;5072655;28;20482;-64
2022/03/18 04:39:39;;;;;;;43.63;20.40;;;;;;;5.05;50.11;102984.28;5072939;28;20041;-64
2022/03/18 04:42:04;;;;;;;38.60;20.00;;;;;;;5.06;50.08;102986.06;5073432;28;20036;-64
2022/03/18 04:44:30;;;;;;;50.30;24.70;;;;;;;5.04;49.94;102993.81;5071617;28;20079;-64
2022/03/18 04:46:55;;;;;;;30.83;16.88;;;;;;;5.05;49.91;102995.59;5073234;28;20411;-64
2022/03/18 04:49:21;;;;;;;27.17;15.70;;;;;;;5.03;50.01;102989.44;5072892;28;20029;-64
2022/03/18 04:51:46;;;;;;;23.83;14.10;;;;;;;5.02;49.94;102991.97;5072423;28;20086;-64
2022/03/18 04:54:12;;;;;;;26.70;15.18;;;;;;;5.01;49.89;102993.69;5072825;28;20056;-64
2022/03/18 04:59:22;;;;;;;30.20;16.95;;;;;;;4.98;49.87;103003.06;5056881;28;20051;-64
2022/03/18 05:01:48;;;;;;;26.40;15.50;;;;;;;5.01;49.95;102998.00;5070869;28;20396;-65
2022/03/18 05:04:13;;;;;;;27.17;14.77;;;;;;;5.00;49.84;103007.53;5076424;28;20036;-65
2022/03/18 05:06:39;;;;;;;24.90;15.23;;;;;;;4.98;49.86;103003.97;5076316;28;20067;-65
2022/03/18 05:09:05;;;;;;;23.80;13.40;;;;;;;4.92;49.97;103006.31;5076529;28;20039;-65
2022/03/18 05:11:30;;;;;;;25.70;14.77;;;;;;;4.98;49.91;103014.38;5075185;28;20024;-65
2022/03/18 05:13:57;;;;;;;22.05;14.38;;;;;;;5.00;49.92;103009.25;5076321;28;20032;-65
2022/03/18 05:16:23;;;;;;;24.10;13.82;;;;;;;4.99;49.87;103013.59;5076110;28;20115;-65
2022/03/18 05:18:49;;;;;;;24.42;15.02;;;;;;;5.01;49.94;103022.34;5073405;28;20033;-66
2022/03/18 05:21:14;;;;;;;25.10;15.20;;;;;;;5.04;49.72;103022.50;5075839;28;20039;-65
2022/03/18 05:23:39;;;;;;;28.42;15.20;;;;;;;5.05;49.81;103025.97;5076347;28;20453;-65
2022/03/18 05:26:05;;;;;;;21.55;12.80;;;;;;;5.07;49.79;103030.44;5071411;28;20067;-65
2022/03/18 05:28:30;;;;;;;25.42;14.77;;;;;;;5.10;49.75;103034.88;5071440;28;20037;-65
2022/03/18 05:30:57;;;;;;;26.35;14.68;;;;;;;5.11;49.72;103037.56;5076179;28;20544;-67
2022/03/18 05:33:25;;;;;;;23.45;14.15;;;;;;;5.05;49.75;103034.69;5074142;28;20036;-65
2022/03/18 05:35:50;;;;;;;24.75;13.13;;;;;;;5.08;49.82;103032.22;5074631;28;20552;-65
2022/03/18 05:38:16;;;;;;;19.23;12.80;;;;;;;5.10;49.66;103037.47;5075788;28;20033;-65
2022/03/18 05:40:41;;;;;;;16.55;11.68;;;;;;;5.18;49.46;103043.91;5075235;28;20123;-65
2022/03/18 05:43:08;;;;;;;23.15;12.88;;;;;;;5.26;49.30;103046.84;5074733;28;20036;-65
2022/03/18 05:45:33;;;;;;;25.15;15.20;;;;;;;5.35;49.08;103044.66;5066214;28;20048;-65
2022/03/18 05:47:59;;;;;;;25.48;16.35;;;;;;;5.41;48.79;103048.38;5067478;28;20033;-65
2022/03/18 05:50:25;;;;;;;27.75;14.88;;;;;;;5.46;48.68;103051.19;5074809;28;20032;-65
2022/03/18 05:52:50;;;;;;;26.23;14.18;;;;;;;5.52;48.33;103054.06;5090728;28;20110;-65
2022/03/18 05:55:16;;;;;;;21.80;13.10;;;;;;;5.55;48.44;103048.97;5069523;28;20435;-65
2022/03/18 05:57:42;;;;;;;21.25;11.80;;;;;;;5.66;48.08;103060.75;5072002;28;20036;-65
2022/03/18 06:00:08;;;;;;;21.30;11.45;;;;;;;5.76;47.99;103068.94;5057452;28;20397;-65
2022/03/18 06:02:34;;;;;;;18.63;11.73;;;;;;;5.82;47.70;103066.56;5063041;28;20032;-65
2022/03/18 06:05:02;;;;;;;18.67;11.90;;;;;;;5.92;47.54;103071.38;5073240;28;20028;-65
2022/03/18 06:07:28;;;;;;;17.50;11.57;;;;;;;5.97;47.43;103062.00;5069269;28;20066;-66
2022/03/18 06:12:38;;;;;;;17.73;11.38;;;;;;;6.12;47.00;103067.84;5073950;28;20035;-66
2022/03/18 06:15:04;;;;;;;19.63;11.70;;;;;;;6.21;46.71;103067.31;5073537;28;20044;-67
2022/03/18 06:17:29;;;;;;;16.67;11.02;;;;;;;6.30;46.66;103088.53;5073559;28;20107;-67
2022/03/18 06:19:55;;;;;;;17.83;11.05;;;;;;;6.41;46.38;103086.34;5072370;28;20124;-67
2022/03/18 06:22:20;;;;;;;18.92;10.48;;;;;;;6.52;46.21;103079.81;5087234;28;20371;-67
2022/03/18 06:24:48;;;;;;;22.10;13.48;;;;;;;6.66;45.94;103091.69;5071508;28;20066;-67
2022/03/18 06:27:14;;;;;;;23.08;13.98;;;;;;;6.80;45.57;103086.09;5072288;28;20042;-67
2022/03/18 06:29:43;;;;;;;22.30;12.93;;;;;;;6.91;45.41;103084.75;5054966;28;20065;-67
2022/03/18 06:32:09;;;;;;;24.27;12.52;;;;;;;7.06;45.16;103090.53;5071068;28;20040;-67
2022/03/18 06:34:37;;;;;;;24.70;12.93;;;;;;;7.23;44.76;103085.03;5066156;28;20469;-67
2022/03/18 06:37:02;;;;;;;23.92;12.20;;;;;;;7.40;44.46;103091.72;5067638;28;20043;-67
2022/03/18 06:39:28;;;;;;;18.98;11.75;;;;;;;7.45;44.29;103095.38;5069655;28;20037;-67
2022/03/18 06:41:54;;;;;;;19.38;12.10;;;;;;;7.55;43.93;103100.09;5054559;28;20040;-67
2022/03/18 06:44:20;;;;;;;18.08;11.13;;;;;;;7.68;43.90;103100.50;5053294;28;20052;-67
2022/03/18 06:46:46;;;;;;;20.95;11.88;;;;;;;7.79;43.62;103099.16;5054430;28;20597;-67
2022/03/18 06:49:13;;;;;;;22.35;11.48;;;;;;;7.85;43.48;103105.44;5054442;28;20455;-67
2022/03/18 06:51:39;;;;;;;18.17;11.55;;;;;;;7.95;43.16;103111.00;5037004;28;20043;-67
2022/03/18 06:54:05;;;;;;;17.25;10.98;;;;;;;8.03;43.06;103113.03;5054474;28;20053;-67
2022/03/18 06:56:30;;;;;;;21.88;10.88;;;;;;;8.13;42.81;103128.19;5054467;28;20036;-67
2022/03/18 06:58:57;;;;;;;19.30;11.10;;;;;;;8.27;42.52;103123.41;5053129;28;20041;-67
2022/03/18 07:01:22;;;;;;;17.25;10.60;;;;;;;8.43;42.19;103123.91;5053038;28;20047;-67
2022/03/18 07:03:48;;;;;;;20.95;11.50;;;;;;;8.54;41.99;103122.50;5054309;28;20104;-68
2022/03/18 07:06:14;;;;;;;17.63;11.25;;;;;;;8.67;41.85;103127.28;5054583;28;20457;-66
2022/03/18 07:08:39;;;;;;;19.20;11.10;;;;;;;8.83;41.49;103128.63;5053969;28;20032;-69
2022/03/18 07:11:05;;;;;;;15.82;10.10;;;;;;;8.87;40.82;103128.75;5054127;28;20047;-68
2022/03/18 07:13:31;;;;;;;17.17;10.25;;;;;;;8.88;40.61;103137.50;5054013;28;20128;-66
2022/03/18 07:17:54;;;;;;;18.92;10.57;;;;;;;8.98;40.35;103131.69;5036365;28;20030;-66
2022/03/18 07:18:42;;;;;;;16.67;9.40;;;;;;;9.09;40.08;103135.47;5056430;28;20090;-66
2022/03/18 07:21:07;;;;;;;16.02;9.45;;;;;;;9.09;39.50;103143.34;5058040;28;20472;-66
2022/03/18 07:23:32;;;;;;;13.30;8.77;;;;;;;9.13;39.54;103137.34;5057100;28;20028;-66
2022/03/18 07:25:58;;;;;;;14.25;9.18;;;;;;;9.27;39.20;103139.47;5073116;28;20108;-68
2022/03/18 07:28:23;;;;;;;14.90;8.65;;;;;;;9.36;38.98;103145.84;5071735;28;20059;-66
2022/03/18 07:30:49;;;;;;;15.00;9.02;;;;;;;9.51;38.67;103145.38;5069974;28;20033;-66
2022/03/18 07:33:15;;;;;;;17.48;9.18;;;;;;;9.61;38.51;103147.41;5066154;28;20103;-66
2022/03/18 07:35:42;;;;;;;16.42;10.35;;;;;;;9.72;38.08;103146.78;5073495;28;20487;-66
2022/03/18 07:38:09;;;;;;;16.30;8.93;;;;;;;9.80;37.87;103151.38;5062858;28;20031;-66
2022/03/18 07:40:38;;;;;;;14.43;9.05;;;;;;;9.93;37.70;103151.69;5068371;28;20040;-67
2022/03/18 07:43:08;;;;;;;14.43;9.05;;;;;;;10.04;37.50;103160.72;5060774;28;20047;-67
2022/03/18 07:45:35;;;;;;;15.38;9.23;;;;;;;10.08;37.19;103147.72;5057644;28;20090;-67
2022/03/18 07:48:04;;;;;;;12.55;8.43;;;;;;;10.18;37.05;103153.22;5069409;28;20029;-67
2022/03/18 07:50:31;;;;;;;16.85;9.50;;;;;;;10.19;37.14;103166.38;5071736;28;20080;-67
2022/03/18 07:52:59;;;;;;;15.38;9.20;;;;;;;10.21;37.23;103159.41;5070884;28;20044;-67
2022/03/18 07:55:26;;;;;;;14.15;9.20;;;;;;;10.29;36.97;103155.28;5071006;28;20028;-67
2022/03/18 07:57:53;;;;;;;14.50;8.65;;;;;;;10.32;36.68;103159.69;5073429;28;20468;-67
2022/03/18 08:00:18;;;;;;;16.25;9.38;;;;;;;10.35;36.51;103165.03;5049052;28;20036;-67
2022/03/18 08:02:45;;;;;;;16.45;9.52;;;;;;;10.37;36.31;103165.94;5069606;28;20035;-67
2022/03/18 08:05:12;;;;;;;13.55;8.15;;;;;;;10.39;35.98;103166.88;5062834;28;20068;-66
2022/03/18 08:07:39;;;;;;;13.35;8.90;;;;;;;10.40;35.95;103163.38;5048376;28;20036;-67
2022/03/18 08:10:07;;;;;;;14.65;9.13;;;;;;;10.27;35.52;103166.59;5070714;28;20039;-67
2022/03/18 08:12:34;;;;;;;10.63;7.47;;;;;;;10.33;35.53;103158.84;5072040;28;20067;-67
2022/03/18 08:15:02;;;;;;;13.00;8.25;;;;;;;10.38;35.20;103159.84;5051134;28;20082;-67
2022/03/18 08:17:28;;;;;;;13.10;8.52;;;;;;;10.48;35.23;103174.97;5070161;28;20040;-67
2022/03/18 08:19:54;;;;;;;14.32;8.65;;;;;;;10.63;35.08;103169.19;5051139;28;20036;-67
2022/03/18 08:22:21;;;;;;;14.32;9.77;;;;;;;10.74;34.73;103169.44;5065396;28;20040;-66
2022/03/18 08:24:49;;;;;;;13.63;9.07;;;;;;;10.79;34.88;103170.41;5071772;28;20032;-67
2022/03/18 08:27:16;;;;;;;13.00;8.85;;;;;;;10.85;34.42;103173.16;5068020;28;20036;-66
2022/03/18 08:29:41;;;;;;;17.17;10.88;;;;;;;10.89;34.49;103169.75;5049783;28;20101;-66
2022/03/18 08:32:11;;;;;;;13.38;9.38;;;;;;;10.89;34.46;103172.41;5055834;28;20024;-67
2022/03/18 08:34:37;;;;;;;13.98;8.55;;;;;;;10.92;34.26;103175.06;5073380;28;20079;-67
2022/03/18 08:37:05;;;;;;;14.43;8.48;;;;;;;11.06;34.01;103181.53;5076524;28;20465;-66
2022/03/18 08:39:34;;;;;;;13.52;7.90;;;;;;;11.23;33.57;103181.84;5075540;28;20032;-67
2022/03/18 08:41:59;;;;;;;17.25;7.88;;;;;;;11.41;33.56;103185.69;5076785;28;20036;-66
2022/03/18 08:44:25;;;;;;;13.88;8.43;;;;;;;11.45;33.00;103187.53;5072159;28;20036;-66
2022/03/18 08:46:50;;;;;;;19.60;8.98;;;;;;;11.47;33.28;103186.72;5070583;28;20038;-66
2022/03/18 08:49:16;;;;;;;10.90;8.18;;;;;;;11.55;33.15;103187.75;5076043;28;20036;-66
2022/03/18 08:51:42;;;;;;;15.60;8.88;;;;;;;11.58;32.99;103185.19;5075098;28;20044;-66
2022/03/18 08:54:08;;;;;;;13.05;8.55;;;;;;;11.56;32.92;103183.38;5074209;28;20084;-66
2022/03/18 08:56:34;;;;;;;13.27;8.60;;;;;;;11.62;32.27;103179.97;5074592;28;20048;-67
2022/03/18 08:59:03;;;;;;;14.88;9.02;;;;;;;11.76;32.70;103181.09;5076190;28;20037;-67
2022/03/18 09:01:29;;;;;;;14.75;8.10;;;;;;;11.92;32.48;103174.38;5071810;28;20067;-67
2022/03/18 09:03:55;;;;;;;14.50;8.50;;;;;;;12.05;32.05;103182.53;5055086;28;20037;-66
2022/03/18 09:06:20;;;;;;;12.88;7.75;;;;;;;12.05;32.10;103184.28;5071257;28;20479;-67
2022/03/18 09:08:46;;;;;;;12.85;7.82;;;;;;;12.03;32.07;103180.72;5075247;28;20481;-66
2022/03/18 09:11:11;;;;;;;12.15;8.07;;;;;;;12.10;32.12;103195.78;5075808;28;20463;-67
2022/03/18 09:13:37;;;;;;;13.13;8.75;;;;;;;12.20;32.29;103192.41;5074580;28;20123;-67
2022/03/18 09:16:04;;;;;;;14.13;9.02;;;;;;;12.25;31.33;103192.53;5074723;28;20139;-67
2022/03/18 09:18:30;;;;;;;13.07;9.00;;;;;;;12.23;31.71;103191.59;5070597;28;20037;-67
2022/03/18 09:20:56;;;;;;;11.25;8.38;;;;;;;12.23;31.66;103196.88;5060502;28;20411;-67
2022/03/18 09:23:22;;;;;;;13.18;8.30;;;;;;;12.35;31.71;103197.06;5071101;28;20032;-67
2022/03/18 09:25:47;;;;;;;10.05;7.40;;;;;;;12.41;31.42;103190.97;5073919;28;20083;-67
2022/03/18 09:28:13;;;;;;;12.70;8.10;;;;;;;12.48;31.31;103206.94;5085669;28;20483;-67
2022/03/18 09:30:39;;;;;;;13.32;8.57;;;;;;;12.50;30.96;103199.06;5077093;28;20396;-66
2022/03/18 09:33:04;;;;;;;14.00;8.52;;;;;;;12.44;31.06;103199.84;5083036;28;20388;-67
2022/03/18 09:35:30;;;;;;;10.68;7.72;;;;;;;12.47;31.09;103185.81;5075942;28;20045;-66
2022/03/18 09:37:56;;;;;;;12.20;7.15;;;;;;;12.62;30.93;103201.00;5074507;28;20039;-66
2022/03/18 09:40:21;;;;;;;10.48;7.40;;;;;;;12.72;30.86;103208.16;5072715;28;20047;-66
2022/03/18 09:43:17;;;;;;;12.80;7.85;;;;;;;12.45;29.24;103206.91;5071492;28;20024;-67
2022/03/18 09:45:43;;;;;;;10.02;7.43;;;;;;;12.57;30.79;103208.84;5093493;28;20040;-67
2022/03/18 09:48:10;;;;;;;12.75;8.40;;;;;;;12.74;30.45;103203.81;5073174;28;20047;-67
2022/03/18 09:50:42;;;;;;;12.60;7.78;;;;;;;12.97;30.05;103214.69;5070787;28;20029;-66
2022/03/18 09:53:08;;;;;;;13.43;7.70;;;;;;;13.16;30.28;103215.78;5084980;28;20099;-66
2022/03/18 09:55:37;;;;;;;14.07;8.25;;;;;;;13.18;29.80;103216.72;5071193;28;20384;-67
2022/03/18 09:58:02;;;;;;;14.30;8.40;;;;;;;13.12;29.69;103217.50;5074104;28;20055;-67
2022/03/18 10:00:29;;;;;;;13.13;8.15;;;;;;;13.20;29.65;103214.97;5073475;28;20403;-66
2022/03/18 10:03:16;;;;;;;14.85;8.52;;;;;;;13.23;28.80;103218.56;5060308;28;20040;-66
2022/03/18 10:05:59;;;;;;;10.75;7.65;;;;;;;13.33;28.44;103214.28;5069963;28;20487;-66
2022/03/18 10:08:44;;;;;;;12.20;6.97;;;;;;;13.52;29.38;103221.56;5075427;28;20036;-66
2022/03/18 10:11:14;;;;;;;10.48;6.68;;;;;;;13.63;28.69;103223.41;5074140;28;20047;-67
2022/03/18 10:13:50;;;;;;;10.70;7.15;;;;;;;13.73;27.28;103230.59;5070403;28;20037;-66
2022/03/18 10:16:40;;;;;;;13.20;7.78;;;;;;;13.67;27.07;103236.69;5054070;28;20495;-67
2022/03/18 10:19:11;;;;;;;14.18;8.32;;;;;;;13.60;28.25;103233.94;5054905;28;20033;-67
2022/03/18 10:21:49;;;;;;;9.48;7.35;;;;;;;13.82;27.75;103240.34;5070481;28;20045;-67
2022/03/18 10:24:15;;;;;;;10.23;7.30;;;;;;;13.98;28.35;103251.09;5073776;28;20028;-66
2022/03/18 10:26:41;;;;;;;16.15;8.35;;;;;;;13.79;28.31;103251.78;5074542;28;20074;-67
2022/03/18 10:29:11;;;;;;;15.73;9.45;;;;;;;13.63;28.23;103239.28;5074565;28;20448;-67
2022/03/18 10:31:39;;;;;;;10.27;6.68;;;;;;;13.82;28.52;103241.25;5074660;28;20510;-67
2022/03/18 10:37:05;;;;;;;12.18;7.60;;;;;;;14.10;27.14;103242.41;5074207;28;20102;-67
2022/03/18 10:39:45;;;;;;;11.93;7.60;;;;;;;14.24;26.55;103237.22;5073505;28;20063;-67
2022/03/18 10:42:13;;;;;;;11.32;8.43;;;;;;;14.34;27.46;103238.19;5074372;28;20055;-67
2022/03/18 10:44:46;;;;;;;15.43;8.20;;;;;;;14.24;26.50;103229.28;5074224;28;20033;-67
2022/03/18 10:47:32;;;;;;;12.00;7.72;;;;;;;14.38;26.48;103232.06;5072345;28;20036;-67
2022/03/18 10:50:10;;;;;;;10.38;6.45;;;;;;;14.55;26.81;103227.78;5073035;28;20032;-67
2022/03/18 10:52:39;;;;;;;13.85;7.90;;;;;;;14.70;27.17;103234.97;5069313;28;20468;-67
2022/03/18 10:55:19;;;;;;;13.75;7.53;;;;;;;14.58;26.13;103234.88;5059530;28;20127;-67
2022/03/18 10:58:11;;;;;;;10.35;7.28;;;;;;;14.59;26.65;103231.34;5073683;28;20177;-68
2022/03/18 11:00:38;;;;;;;12.55;7.97;;;;;;;14.58;27.06;103234.88;5074018;28;20037;-67
2022/03/18 11:03:05;;;;;;;13.27;7.75;;;;;;;14.58;27.39;103229.59;5072653;28;20036;-67
2022/03/18 11:05:40;;;;;;;11.75;7.95;;;;;;;14.61;26.53;103219.91;5067242;28;20129;-67
2022/03/18 11:08:22;;;;;;;12.55;7.78;;;;;;;14.74;26.24;103228.81;5067608;28;20036;-68
2022/03/18 11:11:07;;;;;;;12.35;7.68;;;;;;;14.67;27.12;103224.34;5072206;28;20059;-68
2022/03/18 11:14:04;;;;;;;12.50;7.97;;;;;;;14.80;26.70;103220.88;5071942;28;20426;-68
2022/03/18 11:16:36;;;;;;;14.13;8.15;;;;;;;14.65;26.56;103219.06;5070012;28;20169;-67
2022/03/18 11:19:05;;;;;;;11.67;7.77;;;;;;;14.75;27.55;103233.22;5056110;28;20177;-67
2022/03/18 11:21:40;;;;;;;12.68;8.00;;;;;;;14.63;27.50;103233.13;5073540;28;20384;-67
2022/03/18 11:24:14;;;;;;;12.63;8.38;;;;;;;14.50;26.88;103229.53;5073807;28;20119;-67
2022/03/18 11:26:46;;;;;;;13.25;8.50;;;;;;;14.49;26.92;103231.28;5072692;28;20431;-67
2022/03/18 11:29:14;;;;;;;10.50;7.47;;;;;;;14.62;27.29;103231.38;5072526;28;20052;-67
2022/03/18 11:31:40;;;;;;;12.38;8.05;;;;;;;14.42;27.22;103242.66;5054923;28;20048;-67
2022/03/18 11:34:17;;;;;;;11.90;7.90;;;;;;;14.42;26.17;103240.00;5072314;28;20058;-68